sensor_id;sensor_type;location;lat;lon;timestamp;P1;durP1;ratioP1;P2;durP2;ratioP2
2123;SDS011;1068;52.460;13.528;2024-03-02T00:00:18;39.50;;;27.77;;
2123;SDS011;1068;52.460;13.528;2024-03-02T00:02:46;38.80;;;27.30;;
2123;SDS011;1068;52.460;13.528;2024-03-02T00:05:14;39.70;;;27.87;;
2123;SDS011;1068;52.460;13.528;2024-03-02T00:07:43;43.93;;;29.60;;
2123;SDS011;1068;52.460;13.528;2024-03-02T00:10:10;36.47;;;26.27;;
2123;SDS011;1068;52.460;13.528;2024-03-02T00:12:38;39.30;;;28.00;;
2123;SDS011;1068;52.460;13.528;2024-03-02T00:15:05;33.90;;;26.70;;
2123;SDS011;1068;52.460;13.528;2024-03-02T00:17:33;37.70;;;28.60;;
2123;SDS011;1068;52.460;13.528;2024-03-02T00:20:00;36.90;;;29.20;;
2123;SDS011;1068;52.460;13.528;2024-03-02T00:22:30;37.17;;;27.20;;
2123;SDS011;1068;52.460;13.528;2024-03-02T00:24:58;38.00;;;28.73;;
2123;SDS011;1068;52.460;13.528;2024-03-02T00:27:25;33.30;;;26.97;;
2123;SDS011;1068;52.460;13.528;2024-03-02T00:29:53;36.90;;;27.50;;
2123;SDS011;1068;52.460;13.528;2024-03-02T00:32:20;35.50;;;28.33;;
2123;SDS011;1068;52.460;13.528;2024-03-02T00:34:47;37.07;;;27.10;;
2123;SDS011;1068;52.460;13.528;2024-03-02T00:37:14;33.47;;;26.50;;
2123;SDS011;1068;52.460;13.528;2024-03-02T00:39:41;35.13;;;27.30;;
2123;SDS011;1068;52.460;13.528;2024-03-02T00:42:09;37.07;;;26.03;;
2123;SDS011;1068;52.460;13.528;2024-03-02T00:44:38;34.87;;;27.80;;
2123;SDS011;1068;52.460;13.528;2024-03-02T00:47:05;38.67;;;29.00;;
2123;SDS011;1068;52.460;13.528;2024-03-02T00:49:32;38.07;;;29.33;;
2123;SDS011;1068;52.460;13.528;2024-03-02T00:51:59;38.20;;;27.73;;
2123;SDS011;1068;52.460;13.528;2024-03-02T00:54:26;37.60;;;27.90;;
2123;SDS011;1068;52.460;13.528;2024-03-02T00:56:53;35.67;;;28.10;;
2123;SDS011;1068;52.460;13.528;2024-03-02T00:59:22;37.57;;;27.50;;
2123;SDS011;1068;52.460;13.528;2024-03-02T01:01:49;39.57;;;27.67;;
2123;SDS011;1068;52.460;13.528;2024-03-02T01:04:16;37.80;;;28.43;;
2123;SDS011;1068;52.460;13.528;2024-03-02T01:06:43;39.70;;;27.90;;
2123;SDS011;1068;52.460;13.528;2024-03-02T01:09:10;35.77;;;26.17;;
2123;SDS011;1068;52.460;13.528;2024-03-02T01:11:38;41.27;;;29.13;;
2123;SDS011;1068;52.460;13.528;2024-03-02T01:14:05;34.20;;;27.10;;
2123;SDS011;1068;52.460;13.528;2024-03-02T01:16:33;40.90;;;28.50;;
2123;SDS011;1068;52.460;13.528;2024-03-02T01:19:00;37.73;;;27.43;;
2123;SDS011;1068;52.460;13.528;2024-03-02T01:21:27;38.27;;;28.37;;
2123;SDS011;1068;52.460;13.528;2024-03-02T01:23:54;39.80;;;29.23;;
2123;SDS011;1068;52.460;13.528;2024-03-02T01:26:21;41.70;;;31.23;;
2123;SDS011;1068;52.460;13.528;2024-03-02T01:28:48;38.83;;;28.73;;
2123;SDS011;1068;52.460;13.528;2024-03-02T01:31:14;38.77;;;29.17;;
2123;SDS011;1068;52.460;13.528;2024-03-02T01:33:43;41.17;;;30.40;;
2123;SDS011;1068;52.460;13.528;2024-03-02T01:36:10;37.40;;;30.37;;
2123;SDS011;1068;52.460;13.528;2024-03-02T01:38:36;42.30;;;30.23;;
2123;SDS011;1068;52.460;13.528;2024-03-02T01:41:03;44.13;;;31.67;;
2123;SDS011;1068;52.460;13.528;2024-03-02T01:43:29;41.27;;;29.67;;
2123;SDS011;1068;52.460;13.528;2024-03-02T01:45:56;40.47;;;28.90;;
2123;SDS011;1068;52.460;13.528;2024-03-02T01:48:23;39.50;;;28.87;;
2123;SDS011;1068;52.460;13.528;2024-03-02T01:50:52;41.60;;;29.80;;
2123;SDS011;1068;52.460;13.528;2024-03-02T01:53:19;38.63;;;28.57;;
2123;SDS011;1068;52.460;13.528;2024-03-02T01:55:46;44.00;;;31.20;;
2123;SDS011;1068;52.460;13.528;2024-03-02T01:58:13;39.70;;;29.37;;
2123;SDS011;1068;52.460;13.528;2024-03-02T02:00:40;39.80;;;29.83;;
2123;SDS011;1068;52.460;13.528;2024-03-02T02:03:07;40.03;;;30.97;;
2123;SDS011;1068;52.460;13.528;2024-03-02T02:05:34;43.73;;;30.67;;
2123;SDS011;1068;52.460;13.528;2024-03-02T02:08:02;39.83;;;30.80;;
2123;SDS011;1068;52.460;13.528;2024-03-02T02:10:30;41.13;;;30.10;;
2123;SDS011;1068;52.460;13.528;2024-03-02T02:12:57;38.67;;;27.97;;
2123;SDS011;1068;52.460;13.528;2024-03-02T02:15:24;39.03;;;29.87;;
2123;SDS011;1068;52.460;13.528;2024-03-02T02:17:52;38.23;;;29.43;;
2123;SDS011;1068;52.460;13.528;2024-03-02T02:20:18;40.63;;;30.17;;
2123;SDS011;1068;52.460;13.528;2024-03-02T02:22:56;42.03;;;32.07;;
2123;SDS011;1068;52.460;13.528;2024-03-02T02:25:23;47.83;;;35.07;;
2123;SDS011;1068;52.460;13.528;2024-03-02T02:27:50;44.53;;;32.77;;
2123;SDS011;1068;52.460;13.528;2024-03-02T02:30:21;47.53;;;35.80;;
2123;SDS011;1068;52.460;13.528;2024-03-02T02:32:48;48.40;;;34.50;;
2123;SDS011;1068;52.460;13.528;2024-03-02T02:35:15;49.93;;;34.90;;
2123;SDS011;1068;52.460;13.528;2024-03-02T02:37:41;47.70;;;34.13;;
2123;SDS011;1068;52.460;13.528;2024-03-02T02:40:10;47.87;;;35.43;;
2123;SDS011;1068;52.460;13.528;2024-03-02T02:42:37;52.53;;;37.80;;
2123;SDS011;1068;52.460;13.528;2024-03-02T02:45:04;51.87;;;37.90;;
2123;SDS011;1068;52.460;13.528;2024-03-02T02:47:31;50.77;;;36.17;;
2123;SDS011;1068;52.460;13.528;2024-03-02T02:50:00;46.30;;;36.20;;
2123;SDS011;1068;52.460;13.528;2024-03-02T02:52:30;46.30;;;33.20;;
2123;SDS011;1068;52.460;13.528;2024-03-02T02:54:59;52.37;;;36.70;;
2123;SDS011;1068;52.460;13.528;2024-03-02T02:57:27;44.40;;;34.60;;
2123;SDS011;1068;52.460;13.528;2024-03-02T02:59:56;50.57;;;37.40;;
2123;SDS011;1068;52.460;13.528;2024-03-02T03:02:23;47.17;;;35.50;;
2123;SDS011;1068;52.460;13.528;2024-03-02T03:04:50;50.87;;;35.60;;
2123;SDS011;1068;52.460;13.528;2024-03-02T03:07:17;47.50;;;33.73;;
2123;SDS011;1068;52.460;13.528;2024-03-02T03:09:43;48.50;;;35.23;;
2123;SDS011;1068;52.460;13.528;2024-03-02T03:12:10;47.47;;;33.60;;
2123;SDS011;1068;52.460;13.528;2024-03-02T03:14:39;47.30;;;34.63;;
2123;SDS011;1068;52.460;13.528;2024-03-02T03:17:06;42.70;;;33.90;;
2123;SDS011;1068;52.460;13.528;2024-03-02T03:19:33;45.30;;;32.77;;
2123;SDS011;1068;52.460;13.528;2024-03-02T03:22:02;41.33;;;30.47;;
2123;SDS011;1068;52.460;13.528;2024-03-02T03:24:29;44.17;;;32.90;;
2123;SDS011;1068;52.460;13.528;2024-03-02T03:26:57;39.63;;;31.33;;
2123;SDS011;1068;52.460;13.528;2024-03-02T03:29:24;43.40;;;31.80;;
2123;SDS011;1068;52.460;13.528;2024-03-02T03:31:53;43.20;;;33.70;;
2123;SDS011;1068;52.460;13.528;2024-03-02T03:34:19;45.70;;;30.73;;
2123;SDS011;1068;52.460;13.528;2024-03-02T03:36:46;41.10;;;31.00;;
2123;SDS011;1068;52.460;13.528;2024-03-02T03:39:13;40.70;;;33.23;;
2123;SDS011;1068;52.460;13.528;2024-03-02T03:41:40;44.20;;;31.60;;
2123;SDS011;1068;52.460;13.528;2024-03-02T03:44:07;41.27;;;31.00;;
2123;SDS011;1068;52.460;13.528;2024-03-02T03:46:34;41.00;;;29.80;;
2123;SDS011;1068;52.460;13.528;2024-03-02T03:49:02;41.97;;;32.17;;
2123;SDS011;1068;52.460;13.528;2024-03-02T03:51:30;44.80;;;31.90;;
2123;SDS011;1068;52.460;13.528;2024-03-02T03:53:57;40.60;;;30.83;;
2123;SDS011;1068;52.460;13.528;2024-03-02T03:56:24;39.93;;;28.87;;
2123;SDS011;1068;52.460;13.528;2024-03-02T03:58:51;36.27;;;28.47;;
2123;SDS011;1068;52.460;13.528;2024-03-02T04:01:18;39.87;;;28.73;;
2123;SDS011;1068;52.460;13.528;2024-03-02T04:03:47;39.90;;;29.30;;
2123;SDS011;1068;52.460;13.528;2024-03-02T04:06:15;40.10;;;30.50;;
2123;SDS011;1068;52.460;13.528;2024-03-02T04:08:42;37.30;;;29.57;;
2123;SDS011;1068;52.460;13.528;2024-03-02T04:11:09;41.70;;;29.57;;
2123;SDS011;1068;52.460;13.528;2024-03-02T04:13:36;42.13;;;29.97;;
2123;SDS011;1068;52.460;13.528;2024-03-02T04:16:03;38.40;;;29.60;;
2123;SDS011;1068;52.460;13.528;2024-03-02T04:18:30;37.87;;;29.47;;
2123;SDS011;1068;52.460;13.528;2024-03-02T04:20:58;37.30;;;28.30;;
2123;SDS011;1068;52.460;13.528;2024-03-02T04:23:26;39.90;;;29.50;;
2123;SDS011;1068;52.460;13.528;2024-03-02T04:25:53;34.60;;;29.40;;
2123;SDS011;1068;52.460;13.528;2024-03-02T04:28:20;36.30;;;29.03;;
2123;SDS011;1068;52.460;13.528;2024-03-02T04:30:47;38.73;;;30.20;;
2123;SDS011;1068;52.460;13.528;2024-03-02T04:33:14;37.67;;;29.23;;
2123;SDS011;1068;52.460;13.528;2024-03-02T04:35:41;36.60;;;28.07;;
2123;SDS011;1068;52.460;13.528;2024-03-02T04:38:08;36.53;;;29.30;;
2123;SDS011;1068;52.460;13.528;2024-03-02T04:40:36;39.10;;;29.53;;
2123;SDS011;1068;52.460;13.528;2024-03-02T04:43:03;40.37;;;29.20;;
2123;SDS011;1068;52.460;13.528;2024-03-02T04:45:30;34.80;;;27.77;;
2123;SDS011;1068;52.460;13.528;2024-03-02T04:47:57;33.60;;;26.70;;
2123;SDS011;1068;52.460;13.528;2024-03-02T04:50:24;33.80;;;27.87;;
2123;SDS011;1068;52.460;13.528;2024-03-02T04:52:51;38.63;;;28.23;;
2123;SDS011;1068;52.460;13.528;2024-03-02T04:55:18;35.97;;;26.60;;
2123;SDS011;1068;52.460;13.528;2024-03-02T04:58:16;34.03;;;25.80;;
2123;SDS011;1068;52.460;13.528;2024-03-02T05:00:43;43.10;;;31.30;;
2123;SDS011;1068;52.460;13.528;2024-03-02T05:03:11;34.50;;;29.07;;
2123;SDS011;1068;52.460;13.528;2024-03-02T05:05:38;40.70;;;30.50;;
2123;SDS011;1068;52.460;13.528;2024-03-02T05:08:05;33.67;;;26.57;;
2123;SDS011;1068;52.460;13.528;2024-03-02T05:10:32;36.93;;;27.43;;
2123;SDS011;1068;52.460;13.528;2024-03-02T05:13:01;35.50;;;28.67;;
2123;SDS011;1068;52.460;13.528;2024-03-02T05:15:29;39.53;;;28.90;;
2123;SDS011;1068;52.460;13.528;2024-03-02T05:17:56;32.70;;;27.13;;
2123;SDS011;1068;52.460;13.528;2024-03-02T05:20:24;38.57;;;27.80;;
2123;SDS011;1068;52.460;13.528;2024-03-02T05:22:51;35.87;;;26.80;;
2123;SDS011;1068;52.460;13.528;2024-03-02T05:25:18;30.20;;;25.23;;
2123;SDS011;1068;52.460;13.528;2024-03-02T05:27:45;35.00;;;26.60;;
2123;SDS011;1068;52.460;13.528;2024-03-02T05:30:12;33.87;;;26.50;;
2123;SDS011;1068;52.460;13.528;2024-03-02T05:32:41;32.13;;;26.30;;
2123;SDS011;1068;52.460;13.528;2024-03-02T05:35:08;32.03;;;24.73;;
2123;SDS011;1068;52.460;13.528;2024-03-02T05:37:36;32.10;;;24.33;;
2123;SDS011;1068;52.460;13.528;2024-03-02T05:40:04;32.93;;;25.83;;
2123;SDS011;1068;52.460;13.528;2024-03-02T05:42:31;34.57;;;26.00;;
2123;SDS011;1068;52.460;13.528;2024-03-02T05:44:58;28.00;;;24.80;;
2123;SDS011;1068;52.460;13.528;2024-03-02T05:47:26;34.30;;;27.00;;
2123;SDS011;1068;52.460;13.528;2024-03-02T05:49:54;31.90;;;24.50;;
2123;SDS011;1068;52.460;13.528;2024-03-02T05:52:21;31.17;;;26.13;;
2123;SDS011;1068;52.460;13.528;2024-03-02T05:54:48;34.40;;;26.77;;
2123;SDS011;1068;52.460;13.528;2024-03-02T05:57:15;32.93;;;25.23;;
2123;SDS011;1068;52.460;13.528;2024-03-02T05:59:56;33.40;;;26.30;;
2123;SDS011;1068;52.460;13.528;2024-03-02T06:02:23;35.93;;;28.07;;
2123;SDS011;1068;52.460;13.528;2024-03-02T06:04:51;33.67;;;28.50;;
2123;SDS011;1068;52.460;13.528;2024-03-02T06:07:19;38.87;;;30.23;;
2123;SDS011;1068;52.460;13.528;2024-03-02T06:09:46;33.23;;;26.57;;
2123;SDS011;1068;52.460;13.528;2024-03-02T06:12:15;36.07;;;28.60;;
2123;SDS011;1068;52.460;13.528;2024-03-02T06:14:42;29.87;;;25.23;;
2123;SDS011;1068;52.460;13.528;2024-03-02T06:17:09;34.00;;;27.17;;
2123;SDS011;1068;52.460;13.528;2024-03-02T06:19:36;35.00;;;26.07;;
2123;SDS011;1068;52.460;13.528;2024-03-02T06:22:03;31.87;;;26.97;;
2123;SDS011;1068;52.460;13.528;2024-03-02T06:24:32;33.40;;;27.03;;
2123;SDS011;1068;52.460;13.528;2024-03-02T06:26:59;31.83;;;26.00;;
2123;SDS011;1068;52.460;13.528;2024-03-02T06:29:26;35.40;;;28.23;;
2123;SDS011;1068;52.460;13.528;2024-03-02T06:31:52;35.53;;;28.10;;
2123;SDS011;1068;52.460;13.528;2024-03-02T06:34:19;38.20;;;29.50;;
2123;SDS011;1068;52.460;13.528;2024-03-02T06:36:46;36.10;;;28.87;;
2123;SDS011;1068;52.460;13.528;2024-03-02T06:39:13;39.30;;;27.97;;
2123;SDS011;1068;52.460;13.528;2024-03-02T06:41:42;41.30;;;30.07;;
2123;SDS011;1068;52.460;13.528;2024-03-02T06:44:09;36.23;;;27.97;;
2123;SDS011;1068;52.460;13.528;2024-03-02T06:46:35;38.30;;;29.90;;
2123;SDS011;1068;52.460;13.528;2024-03-02T06:49:02;36.13;;;26.80;;
2123;SDS011;1068;52.460;13.528;2024-03-02T06:51:29;43.37;;;29.43;;
2123;SDS011;1068;52.460;13.528;2024-03-02T06:53:56;44.40;;;31.80;;
2123;SDS011;1068;52.460;13.528;2024-03-02T06:56:23;37.27;;;29.83;;
2123;SDS011;1068;52.460;13.528;2024-03-02T06:58:51;38.50;;;30.27;;
2123;SDS011;1068;52.460;13.528;2024-03-02T07:01:18;41.37;;;30.53;;
2123;SDS011;1068;52.460;13.528;2024-03-02T07:03:45;46.20;;;33.57;;
2123;SDS011;1068;52.460;13.528;2024-03-02T07:06:12;39.17;;;28.80;;
2123;SDS011;1068;52.460;13.528;2024-03-02T07:08:39;37.33;;;29.97;;
2123;SDS011;1068;52.460;13.528;2024-03-02T07:11:06;40.03;;;31.20;;
2123;SDS011;1068;52.460;13.528;2024-03-02T07:13:34;40.67;;;32.07;;
2123;SDS011;1068;52.460;13.528;2024-03-02T07:16:03;45.63;;;31.50;;
2123;SDS011;1068;52.460;13.528;2024-03-02T07:18:52;38.10;;;29.40;;
2123;SDS011;1068;52.460;13.528;2024-03-02T07:21:20;40.33;;;31.30;;
2123;SDS011;1068;52.460;13.528;2024-03-02T07:23:47;39.33;;;30.30;;
2123;SDS011;1068;52.460;13.528;2024-03-02T07:26:14;44.20;;;31.80;;
2123;SDS011;1068;52.460;13.528;2024-03-02T07:28:43;42.27;;;31.20;;
2123;SDS011;1068;52.460;13.528;2024-03-02T07:31:11;42.30;;;30.10;;
2123;SDS011;1068;52.460;13.528;2024-03-02T07:33:38;36.60;;;29.93;;
2123;SDS011;1068;52.460;13.528;2024-03-02T07:36:05;42.17;;;30.67;;
2123;SDS011;1068;52.460;13.528;2024-03-02T07:38:32;42.43;;;32.43;;
2123;SDS011;1068;52.460;13.528;2024-03-02T07:41:00;44.10;;;31.63;;
2123;SDS011;1068;52.460;13.528;2024-03-02T07:43:27;46.40;;;34.70;;
2123;SDS011;1068;52.460;13.528;2024-03-02T07:45:54;50.73;;;33.20;;
2123;SDS011;1068;52.460;13.528;2024-03-02T07:48:23;44.57;;;33.57;;
2123;SDS011;1068;52.460;13.528;2024-03-02T07:50:51;42.00;;;31.60;;
2123;SDS011;1068;52.460;13.528;2024-03-02T07:53:18;46.23;;;34.10;;
2123;SDS011;1068;52.460;13.528;2024-03-02T07:55:45;42.67;;;32.33;;
2123;SDS011;1068;52.460;13.528;2024-03-02T07:58:12;46.47;;;33.90;;
2123;SDS011;1068;52.460;13.528;2024-03-02T08:00:39;49.07;;;34.90;;
2123;SDS011;1068;52.460;13.528;2024-03-02T08:03:06;52.67;;;36.43;;
2123;SDS011;1068;52.460;13.528;2024-03-02T08:05:37;51.43;;;34.13;;
2123;SDS011;1068;52.460;13.528;2024-03-02T08:08:04;44.57;;;32.97;;
2123;SDS011;1068;52.460;13.528;2024-03-02T08:10:31;47.43;;;34.03;;
2123;SDS011;1068;52.460;13.528;2024-03-02T08:12:58;42.77;;;31.90;;
2123;SDS011;1068;52.460;13.528;2024-03-02T08:15:25;46.30;;;32.83;;
2123;SDS011;1068;52.460;13.528;2024-03-02T08:17:52;45.97;;;32.60;;
2123;SDS011;1068;52.460;13.528;2024-03-02T08:20:19;45.50;;;34.07;;
2123;SDS011;1068;52.460;13.528;2024-03-02T08:22:47;49.93;;;31.00;;
2123;SDS011;1068;52.460;13.528;2024-03-02T08:25:14;42.27;;;32.30;;
2123;SDS011;1068;52.460;13.528;2024-03-02T08:27:41;42.97;;;32.70;;
2123;SDS011;1068;52.460;13.528;2024-03-02T08:30:09;41.40;;;31.57;;
2123;SDS011;1068;52.460;13.528;2024-03-02T08:32:36;44.30;;;31.10;;
2123;SDS011;1068;52.460;13.528;2024-03-02T08:35:04;45.30;;;32.33;;
2123;SDS011;1068;52.460;13.528;2024-03-02T08:37:31;39.83;;;30.60;;
2123;SDS011;1068;52.460;13.528;2024-03-02T08:39:59;43.83;;;31.93;;
2123;SDS011;1068;52.460;13.528;2024-03-02T08:42:27;41.50;;;30.97;;
2123;SDS011;1068;52.460;13.528;2024-03-02T08:44:54;44.80;;;31.00;;
2123;SDS011;1068;52.460;13.528;2024-03-02T08:47:21;42.10;;;29.80;;
2123;SDS011;1068;52.460;13.528;2024-03-02T08:49:47;44.20;;;30.93;;
2123;SDS011;1068;52.460;13.528;2024-03-02T08:52:14;40.57;;;29.17;;
2123;SDS011;1068;52.460;13.528;2024-03-02T08:54:41;42.80;;;30.20;;
2123;SDS011;1068;52.460;13.528;2024-03-02T08:57:10;41.20;;;29.53;;
2123;SDS011;1068;52.460;13.528;2024-03-02T08:59:37;36.63;;;28.43;;
2123;SDS011;1068;52.460;13.528;2024-03-02T09:02:03;31.90;;;25.60;;
2123;SDS011;1068;52.460;13.528;2024-03-02T09:04:31;38.23;;;28.63;;
2123;SDS011;1068;52.460;13.528;2024-03-02T09:06:58;34.10;;;27.40;;
2123;SDS011;1068;52.460;13.528;2024-03-02T09:09:25;40.13;;;28.97;;
2123;SDS011;1068;52.460;13.528;2024-03-02T09:11:52;43.20;;;29.30;;
2123;SDS011;1068;52.460;13.528;2024-03-02T09:14:21;38.17;;;28.00;;
2123;SDS011;1068;52.460;13.528;2024-03-02T09:16:48;43.50;;;31.13;;
2123;SDS011;1068;52.460;13.528;2024-03-02T09:19:15;39.87;;;29.77;;
2123;SDS011;1068;52.460;13.528;2024-03-02T09:21:42;34.30;;;26.60;;
2123;SDS011;1068;52.460;13.528;2024-03-02T09:24:09;40.33;;;29.13;;
2123;SDS011;1068;52.460;13.528;2024-03-02T09:26:37;40.13;;;28.33;;
2123;SDS011;1068;52.460;13.528;2024-03-02T09:29:04;35.00;;;27.23;;
2123;SDS011;1068;52.460;13.528;2024-03-02T09:31:32;35.67;;;27.50;;
2123;SDS011;1068;52.460;13.528;2024-03-02T09:33:59;36.50;;;27.40;;
2123;SDS011;1068;52.460;13.528;2024-03-02T09:36:26;36.80;;;28.30;;
2123;SDS011;1068;52.460;13.528;2024-03-02T09:38:53;37.83;;;28.10;;
2123;SDS011;1068;52.460;13.528;2024-03-02T09:41:20;36.47;;;27.30;;
2123;SDS011;1068;52.460;13.528;2024-03-02T09:43:47;35.47;;;26.17;;
2123;SDS011;1068;52.460;13.528;2024-03-02T09:46:14;36.50;;;25.40;;
2123;SDS011;1068;52.460;13.528;2024-03-02T09:48:43;35.27;;;26.50;;
2123;SDS011;1068;52.460;13.528;2024-03-02T09:51:10;31.33;;;23.90;;
2123;SDS011;1068;52.460;13.528;2024-03-02T09:53:37;30.20;;;23.87;;
2123;SDS011;1068;52.460;13.528;2024-03-02T09:56:04;32.00;;;24.10;;
2123;SDS011;1068;52.460;13.528;2024-03-02T09:58:32;31.50;;;22.70;;
2123;SDS011;1068;52.460;13.528;2024-03-02T10:00:59;27.43;;;22.17;;
2123;SDS011;1068;52.460;13.528;2024-03-02T10:03:26;29.77;;;22.83;;
2123;SDS011;1068;52.460;13.528;2024-03-02T10:05:58;28.63;;;22.57;;
2123;SDS011;1068;52.460;13.528;2024-03-02T10:08:45;29.50;;;22.60;;
2123;SDS011;1068;52.460;13.528;2024-03-02T10:11:17;25.27;;;20.70;;
2123;SDS011;1068;52.460;13.528;2024-03-02T10:13:52;26.20;;;20.00;;
2123;SDS011;1068;52.460;13.528;2024-03-02T10:16:27;28.33;;;20.70;;
2123;SDS011;1068;52.460;13.528;2024-03-02T10:18:54;31.63;;;22.03;;
2123;SDS011;1068;52.460;13.528;2024-03-02T10:21:22;29.70;;;20.53;;
2123;SDS011;1068;52.460;13.528;2024-03-02T10:23:50;25.67;;;20.20;;
2123;SDS011;1068;52.460;13.528;2024-03-02T10:26:17;28.93;;;21.27;;
2123;SDS011;1068;52.460;13.528;2024-03-02T10:28:45;28.97;;;20.77;;
2123;SDS011;1068;52.460;13.528;2024-03-02T10:31:13;28.57;;;20.97;;
2123;SDS011;1068;52.460;13.528;2024-03-02T10:33:39;25.67;;;20.50;;
2123;SDS011;1068;52.460;13.528;2024-03-02T10:36:07;28.10;;;19.60;;
2123;SDS011;1068;52.460;13.528;2024-03-02T10:38:37;24.77;;;19.93;;
2123;SDS011;1068;52.460;13.528;2024-03-02T10:41:05;27.93;;;20.30;;
2123;SDS011;1068;52.460;13.528;2024-03-02T10:43:34;28.73;;;21.63;;
2123;SDS011;1068;52.460;13.528;2024-03-02T10:46:01;26.27;;;19.40;;
2123;SDS011;1068;52.460;13.528;2024-03-02T10:48:28;23.53;;;18.97;;
2123;SDS011;1068;52.460;13.528;2024-03-02T10:50:56;20.67;;;16.10;;
2123;SDS011;1068;52.460;13.528;2024-03-02T10:53:26;23.97;;;17.47;;
2123;SDS011;1068;52.460;13.528;2024-03-02T10:55:58;25.33;;;18.67;;
2123;SDS011;1068;52.460;13.528;2024-03-02T10:58:27;24.03;;;19.37;;
2123;SDS011;1068;52.460;13.528;2024-03-02T11:00:56;22.63;;;18.43;;
2123;SDS011;1068;52.460;13.528;2024-03-02T11:03:26;24.63;;;19.20;;
2123;SDS011;1068;52.460;13.528;2024-03-02T11:05:53;23.00;;;18.27;;
2123;SDS011;1068;52.460;13.528;2024-03-02T11:08:20;24.27;;;17.27;;
2123;SDS011;1068;52.460;13.528;2024-03-02T11:10:52;20.87;;;16.97;;
2123;SDS011;1068;52.460;13.528;2024-03-02T11:13:22;23.47;;;16.97;;
2123;SDS011;1068;52.460;13.528;2024-03-02T11:15:51;21.43;;;17.47;;
2123;SDS011;1068;52.460;13.528;2024-03-02T11:18:19;21.43;;;16.53;;
2123;SDS011;1068;52.460;13.528;2024-03-02T11:20:46;20.53;;;17.03;;
2123;SDS011;1068;52.460;13.528;2024-03-02T11:23:13;20.20;;;16.30;;
2123;SDS011;1068;52.460;13.528;2024-03-02T11:25:41;23.73;;;16.77;;
2123;SDS011;1068;52.460;13.528;2024-03-02T11:28:08;17.63;;;14.07;;
2123;SDS011;1068;52.460;13.528;2024-03-02T11:30:52;23.60;;;16.03;;
2123;SDS011;1068;52.460;13.528;2024-03-02T11:33:26;20.57;;;14.50;;
2123;SDS011;1068;52.460;13.528;2024-03-02T11:35:56;23.63;;;15.00;;
2123;SDS011;1068;52.460;13.528;2024-03-02T11:38:30;19.63;;;14.87;;
2123;SDS011;1068;52.460;13.528;2024-03-02T11:40:57;20.37;;;14.50;;
2123;SDS011;1068;52.460;13.528;2024-03-02T11:43:26;17.67;;;13.80;;
2123;SDS011;1068;52.460;13.528;2024-03-02T11:45:58;15.83;;;13.00;;
2123;SDS011;1068;52.460;13.528;2024-03-02T11:48:26;18.10;;;12.27;;
2123;SDS011;1068;52.460;13.528;2024-03-02T11:50:53;17.80;;;13.47;;
2123;SDS011;1068;52.460;13.528;2024-03-02T11:53:20;17.83;;;13.30;;
2123;SDS011;1068;52.460;13.528;2024-03-02T11:55:47;15.73;;;12.60;;
2123;SDS011;1068;52.460;13.528;2024-03-02T11:58:14;16.93;;;12.13;;
2123;SDS011;1068;52.460;13.528;2024-03-02T12:00:42;13.47;;;11.20;;
2123;SDS011;1068;52.460;13.528;2024-03-02T12:03:12;14.33;;;11.63;;
2123;SDS011;1068;52.460;13.528;2024-03-02T12:05:39;16.37;;;11.20;;
2123;SDS011;1068;52.460;13.528;2024-03-02T12:08:06;15.70;;;11.90;;
2123;SDS011;1068;52.460;13.528;2024-03-02T12:10:34;14.27;;;11.47;;
2123;SDS011;1068;52.460;13.528;2024-03-02T12:13:01;14.07;;;10.53;;
2123;SDS011;1068;52.460;13.528;2024-03-02T12:15:29;14.67;;;12.30;;
2123;SDS011;1068;52.460;13.528;2024-03-02T12:17:56;16.43;;;12.17;;
2123;SDS011;1068;52.460;13.528;2024-03-02T12:20:25;13.60;;;12.17;;
2123;SDS011;1068;52.460;13.528;2024-03-02T12:22:53;13.87;;;11.07;;
2123;SDS011;1068;52.460;13.528;2024-03-02T12:25:20;12.00;;;10.80;;
2123;SDS011;1068;52.460;13.528;2024-03-02T12:27:47;16.10;;;12.20;;
2123;SDS011;1068;52.460;13.528;2024-03-02T12:30:16;12.97;;;10.43;;
2123;SDS011;1068;52.460;13.528;2024-03-02T12:32:43;14.97;;;12.40;;
2123;SDS011;1068;52.460;13.528;2024-03-02T12:35:10;14.80;;;11.07;;
2123;SDS011;1068;52.460;13.528;2024-03-02T12:37:44;14.50;;;11.70;;
2123;SDS011;1068;52.460;13.528;2024-03-02T12:40:11;14.90;;;11.50;;
2123;SDS011;1068;52.460;13.528;2024-03-02T12:42:38;15.40;;;11.90;;
2123;SDS011;1068;52.460;13.528;2024-03-02T12:45:07;12.83;;;11.20;;
2123;SDS011;1068;52.460;13.528;2024-03-02T12:47:34;14.17;;;10.70;;
2123;SDS011;1068;52.460;13.528;2024-03-02T12:50:01;11.97;;;9.40;;
2123;SDS011;1068;52.460;13.528;2024-03-02T12:52:28;12.13;;;9.20;;
2123;SDS011;1068;52.460;13.528;2024-03-02T12:54:58;11.77;;;8.97;;
2123;SDS011;1068;52.460;13.528;2024-03-02T12:57:28;11.20;;;8.97;;
2123;SDS011;1068;52.460;13.528;2024-03-02T12:59:57;10.10;;;8.60;;
2123;SDS011;1068;52.460;13.528;2024-03-02T13:02:27;11.40;;;9.30;;
2123;SDS011;1068;52.460;13.528;2024-03-02T13:04:54;13.63;;;8.50;;
2123;SDS011;1068;52.460;13.528;2024-03-02T13:07:21;13.63;;;12.10;;
2123;SDS011;1068;52.460;13.528;2024-03-02T13:09:49;11.27;;;8.87;;
2123;SDS011;1068;52.460;13.528;2024-03-02T13:12:17;9.47;;;8.47;;
2123;SDS011;1068;52.460;13.528;2024-03-02T13:14:47;9.00;;;7.93;;
2123;SDS011;1068;52.460;13.528;2024-03-02T13:17:14;12.67;;;10.03;;
2123;SDS011;1068;52.460;13.528;2024-03-02T13:19:43;9.57;;;8.57;;
2123;SDS011;1068;52.460;13.528;2024-03-02T13:22:10;10.47;;;8.53;;
2123;SDS011;1068;52.460;13.528;2024-03-02T13:24:37;10.50;;;9.17;;
2123;SDS011;1068;52.460;13.528;2024-03-02T13:27:04;11.27;;;8.90;;
2123;SDS011;1068;52.460;13.528;2024-03-02T13:29:32;10.30;;;8.13;;
2123;SDS011;1068;52.460;13.528;2024-03-02T13:32:00;14.70;;;9.50;;
2123;SDS011;1068;52.460;13.528;2024-03-02T13:34:27;10.83;;;8.70;;
2123;SDS011;1068;52.460;13.528;2024-03-02T13:36:54;9.00;;;7.60;;
2123;SDS011;1068;52.460;13.528;2024-03-02T13:39:21;8.90;;;8.00;;
2123;SDS011;1068;52.460;13.528;2024-03-02T13:41:49;12.07;;;8.83;;
2123;SDS011;1068;52.460;13.528;2024-03-02T13:44:22;10.90;;;8.10;;
2123;SDS011;1068;52.460;13.528;2024-03-02T13:46:50;8.43;;;7.57;;
2123;SDS011;1068;52.460;13.528;2024-03-02T13:49:17;13.40;;;8.90;;
2123;SDS011;1068;52.460;13.528;2024-03-02T13:51:44;9.10;;;8.13;;
2123;SDS011;1068;52.460;13.528;2024-03-02T13:54:11;9.13;;;8.20;;
2123;SDS011;1068;52.460;13.528;2024-03-02T13:56:38;9.27;;;8.10;;
2123;SDS011;1068;52.460;13.528;2024-03-02T13:59:06;10.53;;;9.20;;
2123;SDS011;1068;52.460;13.528;2024-03-02T14:01:33;8.77;;;7.87;;
2123;SDS011;1068;52.460;13.528;2024-03-02T14:04:01;9.37;;;8.00;;
2123;SDS011;1068;52.460;13.528;2024-03-02T14:06:28;10.33;;;8.60;;
2123;SDS011;1068;52.460;13.528;2024-03-02T14:08:55;9.73;;;7.57;;
2123;SDS011;1068;52.460;13.528;2024-03-02T14:11:23;10.03;;;8.50;;
2123;SDS011;1068;52.460;13.528;2024-03-02T14:13:50;9.53;;;8.53;;
2123;SDS011;1068;52.460;13.528;2024-03-02T14:16:19;15.53;;;8.67;;
2123;SDS011;1068;52.460;13.528;2024-03-02T14:18:46;8.80;;;7.23;;
2123;SDS011;1068;52.460;13.528;2024-03-02T14:21:14;9.73;;;8.80;;
2123;SDS011;1068;52.460;13.528;2024-03-02T14:23:41;12.10;;;9.47;;
2123;SDS011;1068;52.460;13.528;2024-03-02T14:26:08;10.43;;;8.23;;
2123;SDS011;1068;52.460;13.528;2024-03-02T14:28:35;9.20;;;7.87;;
2123;SDS011;1068;52.460;13.528;2024-03-02T14:31:02;13.33;;;8.13;;
2123;SDS011;1068;52.460;13.528;2024-03-02T14:33:29;9.00;;;7.43;;
2123;SDS011;1068;52.460;13.528;2024-03-02T14:35:57;10.50;;;7.13;;
2123;SDS011;1068;52.460;13.528;2024-03-02T14:38:26;9.07;;;7.97;;